Kodiak, AK

7:06 AM AKST on December 09, 2016 (GMT -0900)
Albatross Avenue | | Change Station

Elev 36 ft 57.74 °N, 152.50 °W | Updated 8 minutes ago

Rain
Rain Mist
34.5 °F
Feels Like 32 °F
N
3.1
Wind Variable Wind from WNW
Gusts 6.8 mph

Today
High -- | Low -- °F
--% Chance of Precip.
Yesterday
High -- | Low -- °F
Precip. -- in
Pressure 29.88 in
Visibility 6.0 miles
Clouds Few 900 ft
Mostly Cloudy 1700 ft
Overcast 2200 ft
Windchill 32 °F
Dew Point 33 °F
Humidity 93%
Rainfall 0.13 in
Snow Depth Not available.
9:42 AM 4:22 PM
Waxing Gibbous, 75% visible
SPECI PADQ 091558Z 24005KT 6SM RA BR FEW009 BKN017 OVC022 02/02 A2988 RMK AO2 P0001 T00170017 $
Pressure 29.88 in
Visibility 6.0 miles
Clouds Few 900 ft
Mostly Cloudy 1700 ft
Overcast 2200 ft
Windchill 32 °F
Dew Point 33 °F
Humidity 93%
Rainfall 0.13 in
Snow Depth Not available.
9:42 AM 4:22 PM
Waxing Gibbous, 75% visible
SPECI PADQ 091558Z 24005KT 6SM RA BR FEW009 BKN017 OVC022 02/02 A2988 RMK AO2 P0001 T00170017 $

10-Day Weather Forecast

Almanac

Astronomy

Dec. 09, 2016 Rise Set
Actual Time
Civil Twilight
Nautical Twilight
Astronomical Twilight
Moon
Length of Visible Light
Length of Day
Tomorrow will be .
, % of the Moon is Illuminated

Today's Extremes

State Highs State Lows

Community

WunderPhotos

Upload Photos

1,956,462 photos uploaded!

WunderBlog® & News

Nearby

Air Quality

  Air Quality AQ Index Pollutant
Not available.

Snow Depth

Station Depth Elevation

Earthquake Activity

City Distance Mag. Time & Date
Minimum magnitude displayed is 2.5.

Coastal Water Temperatures

Place Temperature

Stations

Nearby Weather Stations

Station Location Temp. Windchill Dew Point Humidity Wind Precip. Elev Updated Type
                   

Watches & Warnings

There are currently no watches in effect.